Lister — ZDHW6 — position and weather

sailwx.info

Track history (hours):
 
Tides and Currents Weather Stations Pressure Air Temp Water Temp Dewpoint Dewpoint Depression Visibility Wind Speed Wind Dir Waves Ship Positions

Lister

Last reported at 2015-Jul-25 05:33 UTC. Time now 2015-Jul-29 22:04 UTC.
Position N 54°17' E 013°45'.

Length 89 m; draft 4.3 m.

Type: Ship. MMSI: 236381000.

Date/timePositionNaut miles runAvg speedWind from/ knotsBaromVisibWave heightAir tempDewpointWater temp
2015-Jul-25 05:33N 54°17' E 013°45'8 7.1
2015-Jul-25 04:29N 54°24' E 013°44'6 1.5
2015-Jul-25 00:34N 54°29' E 013°40'0 0.0
2015-Jul-24 23:25N 54°29' E 013°40'0 0.0
2015-Jul-24 22:34N 54°29' E 013°40'0 0.0
2015-Jul-24 21:28N 54°29' E 013°40'0 0.0
2015-Jul-24 20:34N 54°29' E 013°40'0 0.0
2015-Jul-24 19:25N 54°29' E 013°40'0 0.6
2015-Jul-24 18:34N 54°29' E 013°39'2 1.8
2015-Jul-24 17:25N 54°29' E 013°35'  
2015-Jul-21 22:31N 54°30' E 014°28'18 7.8
2015-Jul-21 20:14N 54°35' E 014°58'7 8.0
2015-Jul-21 19:25N 54°36' E 015°09'105 8.1
2015-Jul-21 06:32N 54°56' E 018°07'8 8.3
2015-Jul-21 05:33N 54°56' E 018°22'8 8.1
2015-Jul-21 04:33N 54°57' E 018°35'8 8.1
2015-Jul-21 03:33N 54°52' E 018°47'8 8.2
2015-Jul-21 02:33N 54°47' E 018°58'7 7.3
2015-Jul-21 01:33N 54°39' E 018°57'9 8.6
2015-Jul-21 00:33N 54°32' E 018°49'9 8.7
2015-Jul-20 23:33N 54°32' E 018°34'1 0.8
2015-Jul-20 22:32N 54°32' E 018°32'0 0.0
2015-Jul-20 21:32N 54°32' E 018°32'0 0.0
2015-Jul-20 20:32N 54°32' E 018°32'0 0.0
2015-Jul-20 19:32N 54°32' E 018°32'0 0.0
2015-Jul-20 18:32N 54°32' E 018°32'0 0.0
2015-Jul-20 17:32N 54°32' E 018°32'0 0.0
2015-Jul-20 16:32N 54°32' E 018°32'0 0.0
2015-Jul-20 15:32N 54°32' E 018°32'0 0.0
2015-Jul-20 14:32N 54°32' E 018°32'0 0.0
2015-Jul-20 13:32N 54°32' E 018°32'0 0.0
2015-Jul-20 12:32N 54°32' E 018°32'0 0.0
2015-Jul-20 11:32N 54°32' E 018°32'0 0.0
2015-Jul-20 10:32N 54°32' E 018°32'0 0.0
2015-Jul-20 09:32N 54°32' E 018°32'0 0.0
2015-Jul-20 08:31N 54°32' E 018°32'0 0.0
2015-Jul-20 07:32N 54°32' E 018°32'0 0.0
2015-Jul-20 06:32N 54°32' E 018°32'0 0.0
2015-Jul-20 05:32N 54°32' E 018°32'0 0.0
2015-Jul-20 04:32N 54°32' E 018°32'0 0.0
2015-Jul-20 03:32N 54°32' E 018°32'0 0.0
2015-Jul-20 02:32N 54°32' E 018°32'0 0.0
2015-Jul-20 01:32N 54°32' E 018°32'0 0.0
2015-Jul-20 00:32N 54°32' E 018°32'0 0.0
2015-Jul-19 23:32N 54°32' E 018°32'0 0.0
2015-Jul-19 22:32N 54°32' E 018°32'0 0.0
2015-Jul-19 21:32N 54°32' E 018°32'0 0.0
2015-Jul-19 20:32N 54°32' E 018°32'0 0.0
2015-Jul-19 19:32N 54°32' E 018°32'0 0.0
2015-Jul-19 18:32N 54°32' E 018°32'0 0.0
2015-Jul-19 17:32N 54°32' E 018°32'0 0.0
2015-Jul-19 16:32N 54°32' E 018°32'0 0.0
2015-Jul-19 15:33N 54°32' E 018°32'0 0.0
2015-Jul-19 14:32N 54°32' E 018°32'0 0.0
2015-Jul-19 13:32N 54°32' E 018°32'0 0.0
2015-Jul-19 12:33N 54°32' E 018°32'0 0.0
2015-Jul-19 11:32N 54°32' E 018°32'0 0.0
2015-Jul-19 10:32N 54°32' E 018°32'0 0.0
2015-Jul-19 09:32N 54°32' E 018°32'0 0.0
2015-Jul-19 08:33N 54°32' E 018°32'0 0.0
2015-Jul-19 07:33N 54°32' E 018°32'0 0.0
2015-Jul-19 06:33N 54°32' E 018°32'0 0.0
2015-Jul-19 05:33N 54°32' E 018°32'0 0.0
2015-Jul-19 04:33N 54°32' E 018°32'0 0.0
2015-Jul-19 00:33N 54°32' E 018°32'0 0.0
2015-Jul-18 23:33N 54°32' E 018°32'0 0.0
2015-Jul-18 22:33N 54°32' E 018°32'0 0.0
2015-Jul-18 21:33N 54°32' E 018°32'0 0.0
2015-Jul-18 20:33N 54°32' E 018°32'0 0.0
2015-Jul-18 19:33N 54°32' E 018°32'0 0.0
2015-Jul-18 18:33N 54°32' E 018°32'0 0.0
2015-Jul-18 17:33N 54°32' E 018°32'0 0.0
2015-Jul-18 16:33N 54°32' E 018°32'0 0.0
2015-Jul-18 15:33N 54°32' E 018°32'0 0.0
2015-Jul-18 14:33N 54°32' E 018°32'0 0.0
2015-Jul-18 13:33N 54°32' E 018°32'0 0.0
2015-Jul-18 12:33N 54°32' E 018°32'0 0.0
2015-Jul-18 11:33N 54°32' E 018°32'0 0.0
2015-Jul-18 10:33N 54°32' E 018°32'0 0.0
2015-Jul-18 09:33N 54°32' E 018°32'0 0.0
2015-Jul-18 08:33N 54°32' E 018°32'0 0.0
2015-Jul-18 07:33N 54°32' E 018°32'0 0.0
2015-Jul-18 06:33N 54°32' E 018°32'0 0.0
2015-Jul-18 05:33N 54°32' E 018°32'0 0.0
2015-Jul-18 04:33N 54°32' E 018°32'0 0.0
2015-Jul-18 03:33N 54°32' E 018°32'0 0.0
2015-Jul-18 02:33N 54°32' E 018°32'0 0.0
2015-Jul-18 01:33N 54°32' E 018°32'0 0.0
2015-Jul-18 00:33N 54°32' E 018°32'0 0.0
2015-Jul-17 23:33N 54°32' E 018°32'0 0.0
2015-Jul-17 22:33N 54°32' E 018°32'0 0.0
2015-Jul-17 21:33N 54°32' E 018°32'0 0.0
2015-Jul-17 20:33N 54°32' E 018°32'0 0.0
2015-Jul-17 19:33N 54°32' E 018°32'0 0.0
2015-Jul-17 18:33N 54°32' E 018°32'0 0.0
2015-Jul-17 17:33N 54°32' E 018°32'0 0.0
2015-Jul-17 16:33N 54°32' E 018°32'0 0.0
2015-Jul-17 15:33N 54°32' E 018°32'0 0.0
2015-Jul-17 14:33N 54°32' E 018°32'0 0.0
2015-Jul-17 13:33N 54°32' E 018°32'0 0.0
2015-Jul-17 12:33N 54°32' E 018°32'0 0.0
2015-Jul-17 11:33N 54°32' E 018°32'0 0.0
2015-Jul-17 10:33N 54°32' E 018°32'0 0.0
2015-Jul-17 09:33N 54°32' E 018°32'0 0.0
2015-Jul-17 08:33N 54°32' E 018°32'0 0.0
2015-Jul-17 07:33N 54°32' E 018°32'0 0.0
2015-Jul-17 06:33N 54°32' E 018°32'0 0.0
2015-Jul-17 05:33N 54°32' E 018°32'2 1.6
2015-Jul-17 04:33N 54°32' E 018°35'8 8.0
2015-Jul-17 03:33N 54°33' E 018°49'9 8.9
2015-Jul-17 02:33N 54°41' E 018°57'8 8.3
2015-Jul-17 01:33N 54°49' E 018°53'1110.7
2015-Jul-17 00:34N 54°55' E 018°39'1010.4
2015-Jul-16 23:34N 54°56' E 018°21'1110.8
2015-Jul-16 22:33N 54°55' E 018°02'1110.7
2015-Jul-16 21:32N 54°54' E 017°43'7410.6
2015-Jul-16 14:31N 54°51' E 015°34'1210.9
2015-Jul-16 13:28N 54°53' E 015°14'1010.9
2015-Jul-16 12:33N 54°55' E 014°57'1110.7
2015-Jul-16 11:34N 54°56' E 014°39'1110.7
2015-Jul-16 10:34N 54°58' E 014°20'1110.8
2015-Jul-16 09:34N 54°60' E 014°02'1311.4
2015-Jul-16 08:28N 55°04' E 013°41'2610.9
2015-Jul-16 06:04N 55°13' E 012°58'610.9
2015-Jul-16 05:31N 55°15' E 012°49'8 8.7
2015-Jul-16 04:34N 55°22' E 012°39'1110.8
2015-Jul-16 03:34N 55°32' E 012°42'1110.7
2015-Jul-16 02:34N 55°43' E 012°41'1110.8
2015-Jul-16 01:33N 55°54' E 012°38'1110.6
2015-Jul-16 00:33N 56°04' E 012°36'1111.5
2015-Jul-15 23:33N 56°10' E 012°19'1210.7
2015-Jul-15 22:24N 56°13' E 011°57'  
Track history (hours):
 
Tides and Currents Weather Stations Pressure Air Temp Water Temp Dewpoint Dewpoint Depression Visibility Wind Speed Wind Dir Waves Ship Positions

Lister

Last reported at 2015-Jul-25 05:33 UTC. Time now 2015-Jul-29 22:04 UTC.
Position N 54°17' E 013°45'.

Length 89 m; draft 4.3 m.

Type: Ship. MMSI: 236381000.

Date/timePositionNaut miles runAvg speedWind from/ knotsBaromVisibWave heightAir tempDewpointWater temp
2015-Jul-25 05:33N 54°17' E 013°45'8 7.1
2015-Jul-25 04:29N 54°24' E 013°44'6 1.5
2015-Jul-25 00:34N 54°29' E 013°40'0 0.0
2015-Jul-24 23:25N 54°29' E 013°40'0 0.0
2015-Jul-24 22:34N 54°29' E 013°40'0 0.0
2015-Jul-24 21:28N 54°29' E 013°40'0 0.0
2015-Jul-24 20:34N 54°29' E 013°40'0 0.0
2015-Jul-24 19:25N 54°29' E 013°40'0 0.6
2015-Jul-24 18:34N 54°29' E 013°39'2 1.8
2015-Jul-24 17:25N 54°29' E 013°35'  
2015-Jul-21 22:31N 54°30' E 014°28'18 7.8
2015-Jul-21 20:14N 54°35' E 014°58'7 8.0
2015-Jul-21 19:25N 54°36' E 015°09'105 8.1
2015-Jul-21 06:32N 54°56' E 018°07'8 8.3
2015-Jul-21 05:33N 54°56' E 018°22'8 8.1
2015-Jul-21 04:33N 54°57' E 018°35'8 8.1
2015-Jul-21 03:33N 54°52' E 018°47'8 8.2
2015-Jul-21 02:33N 54°47' E 018°58'7 7.3
2015-Jul-21 01:33N 54°39' E 018°57'9 8.6
2015-Jul-21 00:33N 54°32' E 018°49'9 8.7
2015-Jul-20 23:33N 54°32' E 018°34'1 0.8
2015-Jul-20 22:32N 54°32' E 018°32'0 0.0
2015-Jul-20 21:32N 54°32' E 018°32'0 0.0
2015-Jul-20 20:32N 54°32' E 018°32'0 0.0
2015-Jul-20 19:32N 54°32' E 018°32'0 0.0
2015-Jul-20 18:32N 54°32' E 018°32'0 0.0
2015-Jul-20 17:32N 54°32' E 018°32'0 0.0
2015-Jul-20 16:32N 54°32' E 018°32'0 0.0
2015-Jul-20 15:32N 54°32' E 018°32'0 0.0
2015-Jul-20 14:32N 54°32' E 018°32'0 0.0
2015-Jul-20 13:32N 54°32' E 018°32'0 0.0
2015-Jul-20 12:32N 54°32' E 018°32'0 0.0
2015-Jul-20 11:32N 54°32' E 018°32'0 0.0
2015-Jul-20 10:32N 54°32' E 018°32'0 0.0
2015-Jul-20 09:32N 54°32' E 018°32'0 0.0
2015-Jul-20 08:31N 54°32' E 018°32'0 0.0
2015-Jul-20 07:32N 54°32' E 018°32'0 0.0
2015-Jul-20 06:32N 54°32' E 018°32'0 0.0
2015-Jul-20 05:32N 54°32' E 018°32'0 0.0
2015-Jul-20 04:32N 54°32' E 018°32'0 0.0
2015-Jul-20 03:32N 54°32' E 018°32'0 0.0
2015-Jul-20 02:32N 54°32' E 018°32'0 0.0
2015-Jul-20 01:32N 54°32' E 018°32'0 0.0
2015-Jul-20 00:32N 54°32' E 018°32'0 0.0
2015-Jul-19 23:32N 54°32' E 018°32'0 0.0
2015-Jul-19 22:32N 54°32' E 018°32'0 0.0
2015-Jul-19 21:32N 54°32' E 018°32'0 0.0
2015-Jul-19 20:32N 54°32' E 018°32'0 0.0
2015-Jul-19 19:32N 54°32' E 018°32'0 0.0
2015-Jul-19 18:32N 54°32' E 018°32'0 0.0
2015-Jul-19 17:32N 54°32' E 018°32'0 0.0
2015-Jul-19 16:32N 54°32' E 018°32'0 0.0
2015-Jul-19 15:33N 54°32' E 018°32'0 0.0
2015-Jul-19 14:32N 54°32' E 018°32'0 0.0
2015-Jul-19 13:32N 54°32' E 018°32'0 0.0
2015-Jul-19 12:33N 54°32' E 018°32'0 0.0
2015-Jul-19 11:32N 54°32' E 018°32'0 0.0
2015-Jul-19 10:32N 54°32' E 018°32'0 0.0
2015-Jul-19 09:32N 54°32' E 018°32'0 0.0
2015-Jul-19 08:33N 54°32' E 018°32'0 0.0
2015-Jul-19 07:33N 54°32' E 018°32'0 0.0
2015-Jul-19 06:33N 54°32' E 018°32'0 0.0
2015-Jul-19 05:33N 54°32' E 018°32'0 0.0
2015-Jul-19 04:33N 54°32' E 018°32'0 0.0
2015-Jul-19 00:33N 54°32' E 018°32'0 0.0
2015-Jul-18 23:33N 54°32' E 018°32'0 0.0
2015-Jul-18 22:33N 54°32' E 018°32'0 0.0
2015-Jul-18 21:33N 54°32' E 018°32'0 0.0
2015-Jul-18 20:33N 54°32' E 018°32'0 0.0
2015-Jul-18 19:33N 54°32' E 018°32'0 0.0
2015-Jul-18 18:33N 54°32' E 018°32'0 0.0
2015-Jul-18 17:33N 54°32' E 018°32'0 0.0
2015-Jul-18 16:33N 54°32' E 018°32'0 0.0
2015-Jul-18 15:33N 54°32' E 018°32'0 0.0
2015-Jul-18 14:33N 54°32' E 018°32'0 0.0
2015-Jul-18 13:33N 54°32' E 018°32'0 0.0
2015-Jul-18 12:33N 54°32' E 018°32'0 0.0
2015-Jul-18 11:33N 54°32' E 018°32'0 0.0
2015-Jul-18 10:33N 54°32' E 018°32'0 0.0
2015-Jul-18 09:33N 54°32' E 018°32'0 0.0
2015-Jul-18 08:33N 54°32' E 018°32'0 0.0
2015-Jul-18 07:33N 54°32' E 018°32'0 0.0
2015-Jul-18 06:33N 54°32' E 018°32'0 0.0
2015-Jul-18 05:33N 54°32' E 018°32'0 0.0
2015-Jul-18 04:33N 54°32' E 018°32'0 0.0
2015-Jul-18 03:33N 54°32' E 018°32'0 0.0
2015-Jul-18 02:33N 54°32' E 018°32'0 0.0
2015-Jul-18 01:33N 54°32' E 018°32'0 0.0
2015-Jul-18 00:33N 54°32' E 018°32'0 0.0
2015-Jul-17 23:33N 54°32' E 018°32'0 0.0
2015-Jul-17 22:33N 54°32' E 018°32'0 0.0
2015-Jul-17 21:33N 54°32' E 018°32'0 0.0
2015-Jul-17 20:33N 54°32' E 018°32'0 0.0
2015-Jul-17 19:33N 54°32' E 018°32'0 0.0
2015-Jul-17 18:33N 54°32' E 018°32'0 0.0
2015-Jul-17 17:33N 54°32' E 018°32'0 0.0
2015-Jul-17 16:33N 54°32' E 018°32'0 0.0
2015-Jul-17 15:33N 54°32' E 018°32'0 0.0
2015-Jul-17 14:33N 54°32' E 018°32'0 0.0
2015-Jul-17 13:33N 54°32' E 018°32'0 0.0
2015-Jul-17 12:33N 54°32' E 018°32'0 0.0
2015-Jul-17 11:33N 54°32' E 018°32'0 0.0
2015-Jul-17 10:33N 54°32' E 018°32'0 0.0
2015-Jul-17 09:33N 54°32' E 018°32'0 0.0
2015-Jul-17 08:33N 54°32' E 018°32'0 0.0
2015-Jul-17 07:33N 54°32' E 018°32'0 0.0
2015-Jul-17 06:33N 54°32' E 018°32'0 0.0
2015-Jul-17 05:33N 54°32' E 018°32'2 1.6
2015-Jul-17 04:33N 54°32' E 018°35'8 8.0
2015-Jul-17 03:33N 54°33' E 018°49'9 8.9
2015-Jul-17 02:33N 54°41' E 018°57'8 8.3
2015-Jul-17 01:33N 54°49' E 018°53'1110.7
2015-Jul-17 00:34N 54°55' E 018°39'1010.4
2015-Jul-16 23:34N 54°56' E 018°21'1110.8
2015-Jul-16 22:33N 54°55' E 018°02'1110.7
2015-Jul-16 21:32N 54°54' E 017°43'7410.6
2015-Jul-16 14:31N 54°51' E 015°34'1210.9
2015-Jul-16 13:28N 54°53' E 015°14'1010.9
2015-Jul-16 12:33N 54°55' E 014°57'1110.7
2015-Jul-16 11:34N 54°56' E 014°39'1110.7
2015-Jul-16 10:34N 54°58' E 014°20'1110.8
2015-Jul-16 09:34N 54°60' E 014°02'1311.4
2015-Jul-16 08:28N 55°04' E 013°41'2610.9
2015-Jul-16 06:04N 55°13' E 012°58'610.9
2015-Jul-16 05:31N 55°15' E 012°49'8 8.7
2015-Jul-16 04:34N 55°22' E 012°39'1110.8
2015-Jul-16 03:34N 55°32' E 012°42'1110.7
2015-Jul-16 02:34N 55°43' E 012°41'1110.8
2015-Jul-16 01:33N 55°54' E 012°38'1110.6
2015-Jul-16 00:33N 56°04' E 012°36'1111.5
2015-Jul-15 23:33N 56°10' E 012°19'1210.7
2015-Jul-15 22:24N 56°13' E 011°57'  

Dump ship's entire track history